Pine Summit, Pennsylvania
Current Conditions -  °F | °C
As of 6:20 PM on Thursday 18 Dec 2014 (Local Time) from KIPT Reporting Station
Overcast Overcast  
Wind Chill: 26°   Ceiling: 3100
Heat Index: 34°   Visibility: 10mi
Dew Point: 26°   Wind: 10mph
Humidity: 73%   Direction: 270°W
Pressure: 30.05"   Gusts: NA
Location:  41.1401°N, 76.5245°W
Report Text: KIPT 182320Z 27009KT 10SM OVC031 01/M03 A3005 RMK AO2 T00111033
Loading
Personal Weather Stations






























Interactive Weather Map New forecast layout! Learn more

10-Day Weather Forecast

Advertisements
Track Severe Weather on mobile